sensor_id;sensor_type;location;lat;lon;timestamp;P1;durP1;ratioP1;P2;durP2;ratioP2
27151;SDS011;14677;53.520;7.274;2022-10-12T00:02:26;18.75;;;8.60;;
27151;SDS011;14677;53.520;7.274;2022-10-12T00:04:53;19.88;;;8.63;;
27151;SDS011;14677;53.520;7.274;2022-10-12T00:07:21;16.58;;;8.38;;
27151;SDS011;14677;53.520;7.274;2022-10-12T00:09:48;16.50;;;7.82;;
27151;SDS011;14677;53.520;7.274;2022-10-12T00:12:15;24.58;;;8.40;;
27151;SDS011;14677;53.520;7.274;2022-10-12T00:14:43;16.02;;;8.30;;
27151;SDS011;14677;53.520;7.274;2022-10-12T00:17:10;15.63;;;7.90;;
27151;SDS011;14677;53.520;7.274;2022-10-12T00:19:37;22.30;;;8.50;;
27151;SDS011;14677;53.520;7.274;2022-10-12T00:22:05;15.70;;;8.27;;
27151;SDS011;14677;53.520;7.274;2022-10-12T00:24:32;19.08;;;8.10;;
27151;SDS011;14677;53.520;7.274;2022-10-12T00:29:31;12.95;;;7.20;;
27151;SDS011;14677;53.520;7.274;2022-10-12T00:31:58;13.38;;;7.53;;
27151;SDS011;14677;53.520;7.274;2022-10-12T00:34:26;15.82;;;7.72;;
27151;SDS011;14677;53.520;7.274;2022-10-12T00:36:54;16.73;;;8.35;;
27151;SDS011;14677;53.520;7.274;2022-10-12T00:39:21;17.80;;;7.97;;
27151;SDS011;14677;53.520;7.274;2022-10-12T00:41:48;13.80;;;7.60;;
27151;SDS011;14677;53.520;7.274;2022-10-12T00:46:58;10.40;;;8.05;;
27151;SDS011;14677;53.520;7.274;2022-10-12T00:49:26;16.55;;;7.95;;
27151;SDS011;14677;53.520;7.274;2022-10-12T00:52:05;14.35;;;7.63;;
27151;SDS011;14677;53.520;7.274;2022-10-12T00:54:36;24.40;;;8.60;;
27151;SDS011;14677;53.520;7.274;2022-10-12T00:57:04;12.45;;;7.90;;
27151;SDS011;14677;53.520;7.274;2022-10-12T00:59:33;18.67;;;8.98;;
27151;SDS011;14677;53.520;7.274;2022-10-12T01:02:02;16.20;;;9.10;;
27151;SDS011;14677;53.520;7.274;2022-10-12T01:04:30;18.30;;;8.50;;
27151;SDS011;14677;53.520;7.274;2022-10-12T01:06:58;22.65;;;8.50;;
27151;SDS011;14677;53.520;7.274;2022-10-12T01:09:26;13.35;;;8.35;;
27151;SDS011;14677;53.520;7.274;2022-10-12T01:11:55;20.42;;;8.98;;
27151;SDS011;14677;53.520;7.274;2022-10-12T01:14:23;20.02;;;8.45;;
27151;SDS011;14677;53.520;7.274;2022-10-12T01:21:47;22.90;;;9.38;;
27151;SDS011;14677;53.520;7.274;2022-10-12T01:24:51;24.17;;;8.98;;
27151;SDS011;14677;53.520;7.274;2022-10-12T01:27:21;15.68;;;8.48;;
27151;SDS011;14677;53.520;7.274;2022-10-12T01:30:06;24.33;;;9.50;;
27151;SDS011;14677;53.520;7.274;2022-10-12T01:35:23;20.17;;;10.23;;
27151;SDS011;14677;53.520;7.274;2022-10-12T01:38:05;21.45;;;10.57;;
27151;SDS011;14677;53.520;7.274;2022-10-12T01:40:43;19.45;;;10.20;;
27151;SDS011;14677;53.520;7.274;2022-10-12T01:43:12;16.85;;;10.98;;
27151;SDS011;14677;53.520;7.274;2022-10-12T01:45:42;15.65;;;10.40;;
27151;SDS011;14677;53.520;7.274;2022-10-12T01:48:10;18.35;;;11.35;;
27151;SDS011;14677;53.520;7.274;2022-10-12T01:50:50;22.77;;;11.95;;
27151;SDS011;14677;53.520;7.274;2022-10-12T01:56:41;23.92;;;11.90;;
27151;SDS011;14677;53.520;7.274;2022-10-12T02:01:56;21.10;;;11.35;;
27151;SDS011;14677;53.520;7.274;2022-10-12T02:07:11;18.92;;;11.90;;
27151;SDS011;14677;53.520;7.274;2022-10-12T02:09:40;20.45;;;11.60;;
27151;SDS011;14677;53.520;7.274;2022-10-12T02:12:12;20.02;;;11.93;;
27151;SDS011;14677;53.520;7.274;2022-10-12T02:14:45;25.50;;;11.82;;
27151;SDS011;14677;53.520;7.274;2022-10-12T02:19:41;14.13;;;10.52;;
27151;SDS011;14677;53.520;7.274;2022-10-12T02:22:10;20.13;;;11.32;;
27151;SDS011;14677;53.520;7.274;2022-10-12T02:24:40;15.82;;;11.50;;
27151;SDS011;14677;53.520;7.274;2022-10-12T02:27:08;17.52;;;11.20;;
27151;SDS011;14677;53.520;7.274;2022-10-12T02:29:38;16.90;;;10.30;;
27151;SDS011;14677;53.520;7.274;2022-10-12T02:32:16;15.95;;;10.32;;
27151;SDS011;14677;53.520;7.274;2022-10-12T02:34:59;21.20;;;11.48;;
27151;SDS011;14677;53.520;7.274;2022-10-12T02:37:36;13.98;;;10.63;;
27151;SDS011;14677;53.520;7.274;2022-10-12T02:42:35;13.70;;;9.40;;
27151;SDS011;14677;53.520;7.274;2022-10-12T02:45:25;15.35;;;9.88;;
27151;SDS011;14677;53.520;7.274;2022-10-12T02:47:53;14.60;;;10.43;;
27151;SDS011;14677;53.520;7.274;2022-10-12T02:50:21;14.23;;;10.38;;
27151;SDS011;14677;53.520;7.274;2022-10-12T02:52:50;17.58;;;10.93;;
27151;SDS011;14677;53.520;7.274;2022-10-12T02:55:18;15.00;;;10.65;;
27151;SDS011;14677;53.520;7.274;2022-10-12T02:57:45;14.15;;;10.40;;
27151;SDS011;14677;53.520;7.274;2022-10-12T03:00:12;13.10;;;10.70;;
27151;SDS011;14677;53.520;7.274;2022-10-12T03:02:40;15.10;;;11.00;;
27151;SDS011;14677;53.520;7.274;2022-10-12T03:05:07;13.73;;;11.23;;
27151;SDS011;14677;53.520;7.274;2022-10-12T03:07:34;19.15;;;11.40;;
27151;SDS011;14677;53.520;7.274;2022-10-12T03:10:02;17.08;;;11.30;;
27151;SDS011;14677;53.520;7.274;2022-10-12T03:12:29;15.52;;;10.93;;
27151;SDS011;14677;53.520;7.274;2022-10-12T03:14:57;16.10;;;11.38;;
27151;SDS011;14677;53.520;7.274;2022-10-12T03:17:24;12.50;;;10.38;;
27151;SDS011;14677;53.520;7.274;2022-10-12T03:19:51;15.52;;;11.18;;
27151;SDS011;14677;53.520;7.274;2022-10-12T03:22:18;12.30;;;11.02;;
27151;SDS011;14677;53.520;7.274;2022-10-12T03:24:45;11.85;;;10.25;;
27151;SDS011;14677;53.520;7.274;2022-10-12T03:27:13;19.10;;;10.82;;
27151;SDS011;14677;53.520;7.274;2022-10-12T03:29:40;11.70;;;9.93;;
27151;SDS011;14677;53.520;7.274;2022-10-12T03:32:07;11.45;;;10.35;;
27151;SDS011;14677;53.520;7.274;2022-10-12T03:34:34;15.38;;;10.48;;
27151;SDS011;14677;53.520;7.274;2022-10-12T03:37:02;13.95;;;10.88;;
27151;SDS011;14677;53.520;7.274;2022-10-12T03:39:29;13.85;;;9.93;;
27151;SDS011;14677;53.520;7.274;2022-10-12T03:41:56;9.52;;;8.43;;
27151;SDS011;14677;53.520;7.274;2022-10-12T03:44:24;13.50;;;8.23;;
27151;SDS011;14677;53.520;7.274;2022-10-12T03:46:51;10.38;;;9.38;;
27151;SDS011;14677;53.520;7.274;2022-10-12T03:49:18;9.35;;;8.45;;
27151;SDS011;14677;53.520;7.274;2022-10-12T03:51:46;10.48;;;9.52;;
27151;SDS011;14677;53.520;7.274;2022-10-12T03:54:13;10.73;;;9.50;;
27151;SDS011;14677;53.520;7.274;2022-10-12T03:56:40;13.82;;;9.68;;
27151;SDS011;14677;53.520;7.274;2022-10-12T03:59:08;18.35;;;10.80;;
27151;SDS011;14677;53.520;7.274;2022-10-12T04:01:35;17.45;;;10.20;;
27151;SDS011;14677;53.520;7.274;2022-10-12T04:04:02;25.75;;;10.85;;
27151;SDS011;14677;53.520;7.274;2022-10-12T04:06:30;11.73;;;10.52;;
27151;SDS011;14677;53.520;7.274;2022-10-12T04:08:57;16.95;;;9.43;;
27151;SDS011;14677;53.520;7.274;2022-10-12T04:11:24;23.25;;;11.40;;
27151;SDS011;14677;53.520;7.274;2022-10-12T04:13:51;24.80;;;9.93;;
27151;SDS011;14677;53.520;7.274;2022-10-12T04:16:19;22.42;;;10.00;;
27151;SDS011;14677;53.520;7.274;2022-10-12T04:18:46;53.83;;;9.75;;
27151;SDS011;14677;53.520;7.274;2022-10-12T04:21:14;28.92;;;9.02;;
27151;SDS011;14677;53.520;7.274;2022-10-12T04:23:41;14.43;;;8.65;;
27151;SDS011;14677;53.520;7.274;2022-10-12T04:26:09;10.07;;;8.18;;
27151;SDS011;14677;53.520;7.274;2022-10-12T04:28:36;26.50;;;8.32;;
27151;SDS011;14677;53.520;7.274;2022-10-12T04:31:03;28.50;;;9.45;;
27151;SDS011;14677;53.520;7.274;2022-10-12T04:33:31;18.40;;;8.93;;
27151;SDS011;14677;53.520;7.274;2022-10-12T04:35:58;17.08;;;8.38;;
27151;SDS011;14677;53.520;7.274;2022-10-12T04:38:25;20.70;;;9.00;;
27151;SDS011;14677;53.520;7.274;2022-10-12T04:40:52;14.52;;;8.88;;
27151;SDS011;14677;53.520;7.274;2022-10-12T04:43:20;12.68;;;9.88;;
27151;SDS011;14677;53.520;7.274;2022-10-12T04:45:53;15.55;;;10.10;;
27151;SDS011;14677;53.520;7.274;2022-10-12T04:48:21;10.50;;;9.40;;
27151;SDS011;14677;53.520;7.274;2022-10-12T04:50:49;9.95;;;8.90;;
27151;SDS011;14677;53.520;7.274;2022-10-12T04:53:16;12.82;;;8.02;;
27151;SDS011;14677;53.520;7.274;2022-10-12T04:55:43;12.20;;;8.77;;
27151;SDS011;14677;53.520;7.274;2022-10-12T04:58:10;9.32;;;8.27;;
27151;SDS011;14677;53.520;7.274;2022-10-12T05:00:38;8.32;;;7.47;;
27151;SDS011;14677;53.520;7.274;2022-10-12T05:03:05;11.07;;;8.00;;
27151;SDS011;14677;53.520;7.274;2022-10-12T05:05:32;10.25;;;7.07;;
27151;SDS011;14677;53.520;7.274;2022-10-12T05:08:02;9.60;;;7.32;;
27151;SDS011;14677;53.520;7.274;2022-10-12T05:10:29;7.35;;;6.75;;
27151;SDS011;14677;53.520;7.274;2022-10-12T05:12:57;13.88;;;8.20;;
27151;SDS011;14677;53.520;7.274;2022-10-12T05:15:24;10.65;;;7.50;;
27151;SDS011;14677;53.520;7.274;2022-10-12T05:17:51;11.77;;;8.75;;
27151;SDS011;14677;53.520;7.274;2022-10-12T05:20:18;8.63;;;7.82;;
27151;SDS011;14677;53.520;7.274;2022-10-12T05:22:46;11.57;;;8.32;;
27151;SDS011;14677;53.520;7.274;2022-10-12T05:25:13;10.07;;;8.00;;
27151;SDS011;14677;53.520;7.274;2022-10-12T05:27:40;15.00;;;8.30;;
27151;SDS011;14677;53.520;7.274;2022-10-12T05:30:08;10.02;;;9.02;;
27151;SDS011;14677;53.520;7.274;2022-10-12T05:32:35;9.30;;;7.95;;
27151;SDS011;14677;53.520;7.274;2022-10-12T05:35:03;17.13;;;9.18;;
27151;SDS011;14677;53.520;7.274;2022-10-12T05:37:31;19.70;;;10.18;;
27151;SDS011;14677;53.520;7.274;2022-10-12T05:39:58;21.88;;;10.80;;
27151;SDS011;14677;53.520;7.274;2022-10-12T05:42:26;20.80;;;10.98;;
27151;SDS011;14677;53.520;7.274;2022-10-12T05:44:53;19.52;;;9.95;;
27151;SDS011;14677;53.520;7.274;2022-10-12T05:47:20;14.68;;;9.15;;
27151;SDS011;14677;53.520;7.274;2022-10-12T05:49:48;20.30;;;10.27;;
27151;SDS011;14677;53.520;7.274;2022-10-12T05:52:15;12.60;;;10.07;;
27151;SDS011;14677;53.520;7.274;2022-10-12T05:54:42;17.15;;;9.85;;
27151;SDS011;14677;53.520;7.274;2022-10-12T05:57:09;18.40;;;10.10;;
27151;SDS011;14677;53.520;7.274;2022-10-12T05:59:40;22.52;;;11.40;;
27151;SDS011;14677;53.520;7.274;2022-10-12T06:02:10;18.60;;;11.02;;
27151;SDS011;14677;53.520;7.274;2022-10-12T06:04:38;19.13;;;9.98;;
27151;SDS011;14677;53.520;7.274;2022-10-12T06:07:06;27.10;;;11.45;;
27151;SDS011;14677;53.520;7.274;2022-10-12T06:09:34;16.52;;;10.13;;
27151;SDS011;14677;53.520;7.274;2022-10-12T06:12:04;17.48;;;11.27;;
27151;SDS011;14677;53.520;7.274;2022-10-12T06:14:32;21.27;;;10.75;;
27151;SDS011;14677;53.520;7.274;2022-10-12T06:16:59;23.38;;;11.63;;
27151;SDS011;14677;53.520;7.274;2022-10-12T06:19:26;21.88;;;11.27;;
27151;SDS011;14677;53.520;7.274;2022-10-12T06:21:53;22.73;;;11.40;;
27151;SDS011;14677;53.520;7.274;2022-10-12T06:24:21;20.50;;;11.65;;
27151;SDS011;14677;53.520;7.274;2022-10-12T06:26:48;17.25;;;11.95;;
27151;SDS011;14677;53.520;7.274;2022-10-12T06:29:15;22.67;;;11.35;;
27151;SDS011;14677;53.520;7.274;2022-10-12T06:31:42;22.35;;;11.27;;
27151;SDS011;14677;53.520;7.274;2022-10-12T06:34:16;21.38;;;11.93;;
27151;SDS011;14677;53.520;7.274;2022-10-12T06:36:43;24.50;;;12.77;;
27151;SDS011;14677;53.520;7.274;2022-10-12T06:39:11;22.77;;;13.32;;
27151;SDS011;14677;53.520;7.274;2022-10-12T06:41:38;24.52;;;13.60;;
27151;SDS011;14677;53.520;7.274;2022-10-12T06:44:05;25.67;;;13.40;;
27151;SDS011;14677;53.520;7.274;2022-10-12T06:46:33;23.88;;;13.02;;
27151;SDS011;14677;53.520;7.274;2022-10-12T06:49:01;26.05;;;13.05;;
27151;SDS011;14677;53.520;7.274;2022-10-12T06:51:28;31.80;;;13.18;;
27151;SDS011;14677;53.520;7.274;2022-10-12T06:53:55;32.72;;;12.77;;
27151;SDS011;14677;53.520;7.274;2022-10-12T06:56:23;22.38;;;12.73;;
27151;SDS011;14677;53.520;7.274;2022-10-12T06:58:54;21.25;;;12.50;;
27151;SDS011;14677;53.520;7.274;2022-10-12T07:01:21;27.90;;;13.68;;
27151;SDS011;14677;53.520;7.274;2022-10-12T07:03:48;32.35;;;13.50;;
27151;SDS011;14677;53.520;7.274;2022-10-12T07:06:16;25.27;;;13.55;;
27151;SDS011;14677;53.520;7.274;2022-10-12T07:08:43;23.73;;;13.43;;
27151;SDS011;14677;53.520;7.274;2022-10-12T07:11:11;25.35;;;13.82;;
27151;SDS011;14677;53.520;7.274;2022-10-12T07:13:39;19.13;;;13.70;;
27151;SDS011;14677;53.520;7.274;2022-10-12T07:16:06;29.63;;;14.20;;
27151;SDS011;14677;53.520;7.274;2022-10-12T07:18:34;27.35;;;14.15;;
27151;SDS011;14677;53.520;7.274;2022-10-12T07:21:01;29.02;;;15.07;;
27151;SDS011;14677;53.520;7.274;2022-10-12T07:23:29;34.72;;;14.45;;
27151;SDS011;14677;53.520;7.274;2022-10-12T07:25:57;22.77;;;12.05;;
27151;SDS011;14677;53.520;7.274;2022-10-12T07:28:25;25.45;;;12.23;;
27151;SDS011;14677;53.520;7.274;2022-10-12T07:30:52;24.90;;;11.57;;
27151;SDS011;14677;53.520;7.274;2022-10-12T07:33:19;16.08;;;11.38;;
27151;SDS011;14677;53.520;7.274;2022-10-12T07:35:53;25.60;;;10.23;;
27151;SDS011;14677;53.520;7.274;2022-10-12T07:38:40;20.58;;;10.23;;
27151;SDS011;14677;53.520;7.274;2022-10-12T07:41:10;24.60;;;9.80;;
27151;SDS011;14677;53.520;7.274;2022-10-12T07:43:38;21.23;;;10.18;;
27151;SDS011;14677;53.520;7.274;2022-10-12T07:46:05;22.23;;;10.60;;
27151;SDS011;14677;53.520;7.274;2022-10-12T07:48:32;20.17;;;10.02;;
27151;SDS011;14677;53.520;7.274;2022-10-12T07:51:03;19.98;;;10.18;;
27151;SDS011;14677;53.520;7.274;2022-10-12T07:53:32;28.88;;;10.25;;
27151;SDS011;14677;53.520;7.274;2022-10-12T07:56:03;22.48;;;9.18;;
27151;SDS011;14677;53.520;7.274;2022-10-12T07:58:31;23.52;;;8.27;;
27151;SDS011;14677;53.520;7.274;2022-10-12T08:01:05;25.35;;;10.38;;
27151;SDS011;14677;53.520;7.274;2022-10-12T08:03:32;17.38;;;9.32;;
27151;SDS011;14677;53.520;7.274;2022-10-12T08:06:06;19.67;;;9.57;;
27151;SDS011;14677;53.520;7.274;2022-10-12T08:08:33;20.45;;;10.13;;
27151;SDS011;14677;53.520;7.274;2022-10-12T08:11:00;21.13;;;10.57;;
27151;SDS011;14677;53.520;7.274;2022-10-12T08:13:28;21.00;;;9.20;;
27151;SDS011;14677;53.520;7.274;2022-10-12T08:15:55;28.50;;;8.43;;
27151;SDS011;14677;53.520;7.274;2022-10-12T08:18:22;20.00;;;7.85;;
27151;SDS011;14677;53.520;7.274;2022-10-12T08:20:50;64.43;;;32.33;;
27151;SDS011;14677;53.520;7.274;2022-10-12T08:23:17;15.20;;;7.65;;
27151;SDS011;14677;53.520;7.274;2022-10-12T08:25:54;16.83;;;6.65;;
27151;SDS011;14677;53.520;7.274;2022-10-12T08:28:21;12.27;;;6.00;;
27151;SDS011;14677;53.520;7.274;2022-10-12T08:30:49;13.77;;;5.32;;
27151;SDS011;14677;53.520;7.274;2022-10-12T08:33:17;13.40;;;5.30;;
27151;SDS011;14677;53.520;7.274;2022-10-12T08:35:44;12.02;;;5.57;;
27151;SDS011;14677;53.520;7.274;2022-10-12T08:38:13;13.30;;;5.30;;
27151;SDS011;14677;53.520;7.274;2022-10-12T08:40:54;17.33;;;5.45;;
27151;SDS011;14677;53.520;7.274;2022-10-12T08:46:03;46.88;;;25.17;;
27151;SDS011;14677;53.520;7.274;2022-10-12T08:51:02;13.00;;;5.30;;
27151;SDS011;14677;53.520;7.274;2022-10-12T08:53:34;13.83;;;4.87;;
27151;SDS011;14677;53.520;7.274;2022-10-12T08:56:02;14.52;;;4.80;;
27151;SDS011;14677;53.520;7.274;2022-10-12T08:58:33;16.65;;;4.88;;
27151;SDS011;14677;53.520;7.274;2022-10-12T09:06:32;14.05;;;5.32;;
27151;SDS011;14677;53.520;7.274;2022-10-12T09:13:58;16.17;;;5.57;;
27151;SDS011;14677;53.520;7.274;2022-10-12T09:16:29;13.13;;;4.85;;
27151;SDS011;14677;53.520;7.274;2022-10-12T09:19:00;10.30;;;4.38;;
27151;SDS011;14677;53.520;7.274;2022-10-12T09:21:28;14.35;;;4.10;;
27151;SDS011;14677;53.520;7.274;2022-10-12T09:23:57;9.70;;;4.60;;
27151;SDS011;14677;53.520;7.274;2022-10-12T09:26:35;12.90;;;4.70;;
27151;SDS011;14677;53.520;7.274;2022-10-12T09:29:12;9.80;;;4.07;;
27151;SDS011;14677;53.520;7.274;2022-10-12T09:34:10;16.33;;;3.72;;
27151;SDS011;14677;53.520;7.274;2022-10-12T09:36:44;17.55;;;4.30;;
27151;SDS011;14677;53.520;7.274;2022-10-12T09:39:12;13.15;;;4.25;;
27151;SDS011;14677;53.520;7.274;2022-10-12T09:41:42;11.23;;;4.60;;
27151;SDS011;14677;53.520;7.274;2022-10-12T09:44:21;14.15;;;4.28;;
27151;SDS011;14677;53.520;7.274;2022-10-12T09:46:53;13.32;;;4.22;;
27151;SDS011;14677;53.520;7.274;2022-10-12T09:49:21;12.55;;;4.43;;
27151;SDS011;14677;53.520;7.274;2022-10-12T09:51:51;15.00;;;4.50;;
27151;SDS011;14677;53.520;7.274;2022-10-12T09:54:25;12.40;;;4.93;;
27151;SDS011;14677;53.520;7.274;2022-10-12T09:56:53;10.75;;;4.45;;
27151;SDS011;14677;53.520;7.274;2022-10-12T09:59:37;13.18;;;4.35;;
27151;SDS011;14677;53.520;7.274;2022-10-12T10:04:39;11.35;;;4.22;;
27151;SDS011;14677;53.520;7.274;2022-10-12T10:09:40;18.65;;;4.32;;
27151;SDS011;14677;53.520;7.274;2022-10-12T10:14:41;11.68;;;3.78;;
27151;SDS011;14677;53.520;7.274;2022-10-12T10:17:13;11.35;;;3.90;;
27151;SDS011;14677;53.520;7.274;2022-10-12T10:19:46;17.40;;;4.40;;
27151;SDS011;14677;53.520;7.274;2022-10-12T10:22:14;17.80;;;4.32;;
27151;SDS011;14677;53.520;7.274;2022-10-12T10:24:41;13.98;;;4.90;;
27151;SDS011;14677;53.520;7.274;2022-10-12T10:27:09;19.67;;;4.85;;
27151;SDS011;14677;53.520;7.274;2022-10-12T10:29:53;12.82;;;4.53;;
27151;SDS011;14677;53.520;7.274;2022-10-12T10:33:05;15.53;;;4.83;;
27151;SDS011;14677;53.520;7.274;2022-10-12T10:35:33;18.45;;;4.22;;
27151;SDS011;14677;53.520;7.274;2022-10-12T10:38:00;14.32;;;3.92;;
27151;SDS011;14677;53.520;7.274;2022-10-12T10:40:29;16.38;;;4.28;;
27151;SDS011;14677;53.520;7.274;2022-10-12T10:43:01;15.23;;;4.25;;
27151;SDS011;14677;53.520;7.274;2022-10-12T10:45:31;11.38;;;4.15;;
27151;SDS011;14677;53.520;7.274;2022-10-12T10:48:05;13.60;;;4.10;;
27151;SDS011;14677;53.520;7.274;2022-10-12T10:50:39;14.65;;;4.30;;
27151;SDS011;14677;53.520;7.274;2022-10-12T10:53:14;16.42;;;4.10;;
27151;SDS011;14677;53.520;7.274;2022-10-12T11:01:05;11.40;;;4.13;;
27151;SDS011;14677;53.520;7.274;2022-10-12T11:06:30;12.30;;;4.03;;
27151;SDS011;14677;53.520;7.274;2022-10-12T11:08:56;11.35;;;4.10;;
27151;SDS011;14677;53.520;7.274;2022-10-12T11:11:25;19.83;;;4.85;;
27151;SDS011;14677;53.520;7.274;2022-10-12T11:14:01;17.98;;;4.68;;
27151;SDS011;14677;53.520;7.274;2022-10-12T11:16:35;16.05;;;4.93;;
27151;SDS011;14677;53.520;7.274;2022-10-12T11:21:47;14.18;;;4.00;;
27151;SDS011;14677;53.520;7.274;2022-10-12T11:24:17;18.05;;;3.95;;
27151;SDS011;14677;53.520;7.274;2022-10-12T11:26:49;14.38;;;3.85;;
27151;SDS011;14677;53.520;7.274;2022-10-12T11:29:18;12.45;;;3.80;;
27151;SDS011;14677;53.520;7.274;2022-10-12T11:34:16;15.07;;;3.63;;
27151;SDS011;14677;53.520;7.274;2022-10-12T11:36:45;15.35;;;4.90;;
27151;SDS011;14677;53.520;7.274;2022-10-12T11:39:33;11.75;;;3.88;;
27151;SDS011;14677;53.520;7.274;2022-10-12T11:42:02;13.70;;;3.80;;
27151;SDS011;14677;53.520;7.274;2022-10-12T11:44:48;7.15;;;3.97;;
27151;SDS011;14677;53.520;7.274;2022-10-12T11:52:15;13.38;;;4.00;;
27151;SDS011;14677;53.520;7.274;2022-10-12T11:55:28;15.15;;;4.03;;
27151;SDS011;14677;53.520;7.274;2022-10-12T11:57:34;17.65;;;4.55;;
27151;SDS011;14677;53.520;7.274;2022-10-12T12:00:04;14.73;;;3.90;;
27151;SDS011;14677;53.520;7.274;2022-10-12T12:02:39;14.32;;;4.00;;
27151;SDS011;14677;53.520;7.274;2022-10-12T12:05:10;9.05;;;2.90;;
27151;SDS011;14677;53.520;7.274;2022-10-12T12:15:41;12.10;;;3.38;;
27151;SDS011;14677;53.520;7.274;2022-10-12T12:20:59;8.77;;;2.95;;
27151;SDS011;14677;53.520;7.274;2022-10-12T12:31:11;9.07;;;3.05;;
27151;SDS011;14677;53.520;7.274;2022-10-12T12:33:39;8.80;;;3.05;;
27151;SDS011;14677;53.520;7.274;2022-10-12T12:36:08;10.48;;;2.97;;
27151;SDS011;14677;53.520;7.274;2022-10-12T12:38:54;13.15;;;3.70;;
27151;SDS011;14677;53.520;7.274;2022-10-12T12:41:56;11.27;;;3.38;;
27151;SDS011;14677;53.520;7.274;2022-10-12T12:44:42;14.95;;;3.45;;
27151;SDS011;14677;53.520;7.274;2022-10-12T12:49:58;12.05;;;2.97;;
27151;SDS011;14677;53.520;7.274;2022-10-12T12:52:27;9.90;;;2.75;;
27151;SDS011;14677;53.520;7.274;2022-10-12T13:10:09;12.80;;;3.00;;
27151;SDS011;14677;53.520;7.274;2022-10-12T13:22:31;11.98;;;2.95;;
27151;SDS011;14677;53.520;7.274;2022-10-12T13:25:04;12.02;;;2.72;;
27151;SDS011;14677;53.520;7.274;2022-10-12T13:27:46;11.82;;;2.78;;
27151;SDS011;14677;53.520;7.274;2022-10-12T13:30:31;7.38;;;2.55;;
27151;SDS011;14677;53.520;7.274;2022-10-12T13:35:45;9.05;;;2.00;;
27151;SDS011;14677;53.520;7.274;2022-10-12T13:40:41;8.00;;;2.95;;
27151;SDS011;14677;53.520;7.274;2022-10-12T13:46:03;14.98;;;2.97;;
27151;SDS011;14677;53.520;7.274;2022-10-12T13:48:31;8.20;;;2.50;;
27151;SDS011;14677;53.520;7.274;2022-10-12T13:51:24;10.93;;;2.30;;
27151;SDS011;14677;53.520;7.274;2022-10-12T13:53:51;12.15;;;2.42;;
27151;SDS011;14677;53.520;7.274;2022-10-12T13:56:20;7.43;;;1.90;;
27151;SDS011;14677;53.520;7.274;2022-10-12T13:58:49;10.95;;;2.70;;
27151;SDS011;14677;53.520;7.274;2022-10-12T14:01:17;13.23;;;2.50;;
27151;SDS011;14677;53.520;7.274;2022-10-12T14:03:44;14.43;;;2.58;;
27151;SDS011;14677;53.520;7.274;2022-10-12T14:06:31;11.73;;;2.70;;
27151;SDS011;14677;53.520;7.274;2022-10-12T14:09:07;11.55;;;2.58;;
27151;SDS011;14677;53.520;7.274;2022-10-12T14:11:34;9.07;;;2.95;;
27151;SDS011;14677;53.520;7.274;2022-10-12T14:14:02;11.88;;;2.60;;
27151;SDS011;14677;53.520;7.274;2022-10-12T14:16:29;12.10;;;2.47;;
27151;SDS011;14677;53.520;7.274;2022-10-12T14:19:15;12.00;;;2.50;;
27151;SDS011;14677;53.520;7.274;2022-10-12T14:21:44;8.35;;;2.25;;
27151;SDS011;14677;53.520;7.274;2022-10-12T14:24:13;10.35;;;2.95;;
27151;SDS011;14677;53.520;7.274;2022-10-12T14:26:42;11.52;;;2.42;;
27151;SDS011;14677;53.520;7.274;2022-10-12T14:31:57;8.18;;;2.47;;
27151;SDS011;14677;53.520;7.274;2022-10-12T14:34:33;7.38;;;2.17;;
27151;SDS011;14677;53.520;7.274;2022-10-12T14:37:17;7.60;;;1.80;;
27151;SDS011;14677;53.520;7.274;2022-10-12T14:39:46;8.82;;;2.47;;
27151;SDS011;14677;53.520;7.274;2022-10-12T14:44:43;9.77;;;2.17;;
27151;SDS011;14677;53.520;7.274;2022-10-12T14:49:48;8.18;;;1.83;;
27151;SDS011;14677;53.520;7.274;2022-10-12T14:52:20;9.35;;;1.80;;
27151;SDS011;14677;53.520;7.274;2022-10-12T14:54:52;12.40;;;2.28;;
27151;SDS011;14677;53.520;7.274;2022-10-12T14:57:29;12.48;;;2.17;;
27151;SDS011;14677;53.520;7.274;2022-10-12T14:59:56;6.88;;;1.92;;
27151;SDS011;14677;53.520;7.274;2022-10-12T15:02:25;9.60;;;2.10;;
27151;SDS011;14677;53.520;7.274;2022-10-12T15:04:53;13.70;;;2.67;;
27151;SDS011;14677;53.520;7.274;2022-10-12T15:07:22;8.25;;;2.25;;
27151;SDS011;14677;53.520;7.274;2022-10-12T15:09:50;8.48;;;2.25;;
27151;SDS011;14677;53.520;7.274;2022-10-12T15:12:18;8.77;;;2.92;;
27151;SDS011;14677;53.520;7.274;2022-10-12T15:14:46;12.27;;;2.30;;
27151;SDS011;14677;53.520;7.274;2022-10-12T15:17:17;10.63;;;2.85;;
27151;SDS011;14677;53.520;7.274;2022-10-12T15:19:45;6.60;;;2.30;;
27151;SDS011;14677;53.520;7.274;2022-10-12T15:22:14;12.65;;;2.47;;
27151;SDS011;14677;53.520;7.274;2022-10-12T15:24:41;12.25;;;3.00;;
27151;SDS011;14677;53.520;7.274;2022-10-12T15:27:09;12.38;;;2.85;;
27151;SDS011;14677;53.520;7.274;2022-10-12T15:29:36;13.98;;;2.50;;
27151;SDS011;14677;53.520;7.274;2022-10-12T15:32:04;16.13;;;2.67;;
27151;SDS011;14677;53.520;7.274;2022-10-12T15:34:32;11.32;;;2.20;;
27151;SDS011;14677;53.520;7.274;2022-10-12T15:36:59;14.40;;;2.72;;
27151;SDS011;14677;53.520;7.274;2022-10-12T15:39:33;13.07;;;3.40;;
27151;SDS011;14677;53.520;7.274;2022-10-12T15:42:00;12.85;;;3.20;;
27151;SDS011;14677;53.520;7.274;2022-10-12T15:44:27;6.38;;;2.38;;
27151;SDS011;14677;53.520;7.274;2022-10-12T15:46:55;8.40;;;2.63;;
27151;SDS011;14677;53.520;7.274;2022-10-12T15:49:22;8.10;;;2.42;;
27151;SDS011;14677;53.520;7.274;2022-10-12T15:51:51;12.63;;;2.95;;
27151;SDS011;14677;53.520;7.274;2022-10-12T15:54:19;13.43;;;3.28;;
27151;SDS011;14677;53.520;7.274;2022-10-12T15:56:46;10.15;;;2.60;;
27151;SDS011;14677;53.520;7.274;2022-10-12T15:59:13;11.98;;;3.63;;
27151;SDS011;14677;53.520;7.274;2022-10-12T16:01:41;8.30;;;2.60;;
27151;SDS011;14677;53.520;7.274;2022-10-12T16:04:08;14.60;;;3.03;;
27151;SDS011;14677;53.520;7.274;2022-10-12T16:06:37;15.27;;;3.80;;
27151;SDS011;14677;53.520;7.274;2022-10-12T16:09:05;15.45;;;3.78;;
27151;SDS011;14677;53.520;7.274;2022-10-12T16:11:32;10.50;;;3.00;;
27151;SDS011;14677;53.520;7.274;2022-10-12T16:13:59;11.43;;;3.17;;
27151;SDS011;14677;53.520;7.274;2022-10-12T16:16:27;13.38;;;3.88;;
27151;SDS011;14677;53.520;7.274;2022-10-12T16:18:56;13.48;;;3.60;;
27151;SDS011;14677;53.520;7.274;2022-10-12T16:21:23;13.88;;;3.95;;
27151;SDS011;14677;53.520;7.274;2022-10-12T16:23:51;11.80;;;4.10;;
27151;SDS011;14677;53.520;7.274;2022-10-12T16:26:18;12.10;;;3.97;;
27151;SDS011;14677;53.520;7.274;2022-10-12T16:28:46;14.82;;;4.40;;
27151;SDS011;14677;53.520;7.274;2022-10-12T16:31:13;15.57;;;3.55;;
27151;SDS011;14677;53.520;7.274;2022-10-12T16:33:43;12.50;;;3.80;;
27151;SDS011;14677;53.520;7.274;2022-10-12T16:36:11;15.05;;;4.03;;
27151;SDS011;14677;53.520;7.274;2022-10-12T16:38:39;14.38;;;4.25;;
27151;SDS011;14677;53.520;7.274;2022-10-12T16:41:07;16.63;;;4.20;;
27151;SDS011;14677;53.520;7.274;2022-10-12T16:43:35;13.15;;;4.78;;
27151;SDS011;14677;53.520;7.274;2022-10-12T16:46:02;16.90;;;4.82;;
27151;SDS011;14677;53.520;7.274;2022-10-12T16:48:29;15.40;;;4.30;;
27151;SDS011;14677;53.520;7.274;2022-10-12T16:50:57;14.43;;;4.05;;
27151;SDS011;14677;53.520;7.274;2022-10-12T16:53:24;11.65;;;3.83;;
27151;SDS011;14677;53.520;7.274;2022-10-12T16:55:51;14.02;;;4.45;;
27151;SDS011;14677;53.520;7.274;2022-10-12T16:58:19;15.75;;;4.15;;
27151;SDS011;14677;53.520;7.274;2022-10-12T17:00:46;17.58;;;4.30;;
27151;SDS011;14677;53.520;7.274;2022-10-12T17:03:13;10.75;;;3.85;;